sensor_id;sensor_type;location;lat;lon;timestamp;P1;durP1;ratioP1;P2;durP2;ratioP2
36715;SDS011;22699;51.034;3.730;2022-08-19T00:00:32;49.78;;;37.00;;
36715;SDS011;22699;51.034;3.730;2022-08-19T00:02:59;46.47;;;37.90;;
36715;SDS011;22699;51.034;3.730;2022-08-19T00:05:25;44.67;;;38.88;;
36715;SDS011;22699;51.034;3.730;2022-08-19T00:07:51;47.88;;;39.45;;
36715;SDS011;22699;51.034;3.730;2022-08-19T00:10:17;44.33;;;37.28;;
36715;SDS011;22699;51.034;3.730;2022-08-19T00:12:44;48.97;;;39.08;;
36715;SDS011;22699;51.034;3.730;2022-08-19T00:15:11;48.70;;;38.58;;
36715;SDS011;22699;51.034;3.730;2022-08-19T00:17:40;44.45;;;36.78;;
36715;SDS011;22699;51.034;3.730;2022-08-19T00:20:09;47.95;;;37.83;;
36715;SDS011;22699;51.034;3.730;2022-08-19T00:22:37;39.08;;;34.53;;
36715;SDS011;22699;51.034;3.730;2022-08-19T00:25:03;42.55;;;34.80;;
36715;SDS011;22699;51.034;3.730;2022-08-19T00:27:30;41.85;;;34.75;;
36715;SDS011;22699;51.034;3.730;2022-08-19T00:29:56;43.70;;;35.65;;
36715;SDS011;22699;51.034;3.730;2022-08-19T00:32:23;38.38;;;33.05;;
36715;SDS011;22699;51.034;3.730;2022-08-19T00:34:50;45.63;;;35.35;;
36715;SDS011;22699;51.034;3.730;2022-08-19T00:37:17;42.28;;;36.95;;
36715;SDS011;22699;51.034;3.730;2022-08-19T00:39:44;43.30;;;36.20;;
36715;SDS011;22699;51.034;3.730;2022-08-19T00:42:10;45.25;;;36.47;;
36715;SDS011;22699;51.034;3.730;2022-08-19T00:47:06;43.85;;;35.58;;
36715;SDS011;22699;51.034;3.730;2022-08-19T00:49:52;45.92;;;34.97;;
36715;SDS011;22699;51.034;3.730;2022-08-19T00:52:23;43.45;;;33.38;;
36715;SDS011;22699;51.034;3.730;2022-08-19T00:54:54;40.72;;;32.42;;
36715;SDS011;22699;51.034;3.730;2022-08-19T00:57:22;42.22;;;32.97;;
36715;SDS011;22699;51.034;3.730;2022-08-19T00:59:55;37.92;;;32.08;;
36715;SDS011;22699;51.034;3.730;2022-08-19T01:02:22;38.05;;;30.95;;
36715;SDS011;22699;51.034;3.730;2022-08-19T01:04:48;36.90;;;29.10;;
36715;SDS011;22699;51.034;3.730;2022-08-19T01:07:14;36.60;;;29.25;;
36715;SDS011;22699;51.034;3.730;2022-08-19T01:09:40;37.28;;;30.05;;
36715;SDS011;22699;51.034;3.730;2022-08-19T01:12:05;39.38;;;29.90;;
36715;SDS011;22699;51.034;3.730;2022-08-19T01:14:32;35.60;;;29.63;;
36715;SDS011;22699;51.034;3.730;2022-08-19T01:16:58;38.65;;;30.08;;
36715;SDS011;22699;51.034;3.730;2022-08-19T01:19:33;35.92;;;28.88;;
36715;SDS011;22699;51.034;3.730;2022-08-19T01:22:05;36.40;;;28.35;;
36715;SDS011;22699;51.034;3.730;2022-08-19T01:27:08;37.83;;;25.42;;
36715;SDS011;22699;51.034;3.730;2022-08-19T01:29:34;36.85;;;28.08;;
36715;SDS011;22699;51.034;3.730;2022-08-19T01:32:04;34.20;;;26.98;;
36715;SDS011;22699;51.034;3.730;2022-08-19T01:34:30;30.15;;;25.65;;
36715;SDS011;22699;51.034;3.730;2022-08-19T01:36:59;32.90;;;26.17;;
36715;SDS011;22699;51.034;3.730;2022-08-19T01:39:30;32.63;;;25.63;;
36715;SDS011;22699;51.034;3.730;2022-08-19T01:41:56;32.65;;;26.58;;
36715;SDS011;22699;51.034;3.730;2022-08-19T01:44:22;30.58;;;24.25;;
36715;SDS011;22699;51.034;3.730;2022-08-19T01:46:49;34.13;;;25.83;;
36715;SDS011;22699;51.034;3.730;2022-08-19T01:49:17;31.73;;;23.13;;
36715;SDS011;22699;51.034;3.730;2022-08-19T01:51:45;30.85;;;24.63;;
36715;SDS011;22699;51.034;3.730;2022-08-19T01:54:13;31.02;;;23.25;;
36715;SDS011;22699;51.034;3.730;2022-08-19T01:56:40;32.20;;;24.42;;
36715;SDS011;22699;51.034;3.730;2022-08-19T01:59:10;30.77;;;24.10;;
36715;SDS011;22699;51.034;3.730;2022-08-19T02:01:40;34.13;;;23.55;;
36715;SDS011;22699;51.034;3.730;2022-08-19T02:04:06;31.15;;;22.92;;
36715;SDS011;22699;51.034;3.730;2022-08-19T02:06:32;32.47;;;23.30;;
36715;SDS011;22699;51.034;3.730;2022-08-19T02:08:58;34.85;;;24.13;;
36715;SDS011;22699;51.034;3.730;2022-08-19T02:11:31;32.33;;;23.33;;
36715;SDS011;22699;51.034;3.730;2022-08-19T02:13:58;34.47;;;21.60;;
36715;SDS011;22699;51.034;3.730;2022-08-19T02:16:27;30.42;;;21.88;;
36715;SDS011;22699;51.034;3.730;2022-08-19T02:18:54;29.48;;;22.77;;
36715;SDS011;22699;51.034;3.730;2022-08-19T02:21:20;30.52;;;24.42;;
36715;SDS011;22699;51.034;3.730;2022-08-19T02:23:49;30.52;;;22.38;;
36715;SDS011;22699;51.034;3.730;2022-08-19T02:26:16;31.33;;;23.65;;
36715;SDS011;22699;51.034;3.730;2022-08-19T02:28:43;36.15;;;24.50;;
36715;SDS011;22699;51.034;3.730;2022-08-19T02:31:09;33.53;;;23.05;;
36715;SDS011;22699;51.034;3.730;2022-08-19T02:33:36;33.58;;;23.17;;
36715;SDS011;22699;51.034;3.730;2022-08-19T02:36:05;34.13;;;23.80;;
36715;SDS011;22699;51.034;3.730;2022-08-19T02:38:32;36.50;;;25.48;;
36715;SDS011;22699;51.034;3.730;2022-08-19T02:41:03;34.45;;;24.55;;
36715;SDS011;22699;51.034;3.730;2022-08-19T02:43:32;33.55;;;23.75;;
36715;SDS011;22699;51.034;3.730;2022-08-19T02:46:10;32.13;;;23.25;;
36715;SDS011;22699;51.034;3.730;2022-08-19T02:48:37;31.83;;;24.73;;
36715;SDS011;22699;51.034;3.730;2022-08-19T02:51:04;35.85;;;25.58;;
36715;SDS011;22699;51.034;3.730;2022-08-19T02:53:30;39.50;;;26.05;;
36715;SDS011;22699;51.034;3.730;2022-08-19T02:55:57;35.20;;;25.35;;
36715;SDS011;22699;51.034;3.730;2022-08-19T02:58:23;32.80;;;24.85;;
36715;SDS011;22699;51.034;3.730;2022-08-19T03:00:50;31.67;;;23.27;;
36715;SDS011;22699;51.034;3.730;2022-08-19T03:03:18;34.13;;;23.98;;
36715;SDS011;22699;51.034;3.730;2022-08-19T03:05:44;29.23;;;22.88;;
36715;SDS011;22699;51.034;3.730;2022-08-19T03:08:10;31.60;;;22.90;;
36715;SDS011;22699;51.034;3.730;2022-08-19T03:10:44;32.25;;;22.77;;
36715;SDS011;22699;51.034;3.730;2022-08-19T03:13:15;30.55;;;21.75;;
36715;SDS011;22699;51.034;3.730;2022-08-19T03:15:42;30.38;;;22.13;;
36715;SDS011;22699;51.034;3.730;2022-08-19T03:18:11;28.67;;;21.63;;
36715;SDS011;22699;51.034;3.730;2022-08-19T03:20:41;30.05;;;20.70;;
36715;SDS011;22699;51.034;3.730;2022-08-19T03:23:09;28.63;;;20.52;;
36715;SDS011;22699;51.034;3.730;2022-08-19T03:25:39;29.40;;;20.63;;
36715;SDS011;22699;51.034;3.730;2022-08-19T03:28:08;29.75;;;21.73;;
36715;SDS011;22699;51.034;3.730;2022-08-19T03:30:35;34.58;;;22.30;;
36715;SDS011;22699;51.034;3.730;2022-08-19T03:33:01;29.02;;;20.30;;
36715;SDS011;22699;51.034;3.730;2022-08-19T03:35:27;31.33;;;21.70;;
36715;SDS011;22699;51.034;3.730;2022-08-19T03:37:53;28.52;;;19.13;;
36715;SDS011;22699;51.034;3.730;2022-08-19T03:40:20;28.80;;;19.77;;
36715;SDS011;22699;51.034;3.730;2022-08-19T03:42:45;29.80;;;21.75;;
36715;SDS011;22699;51.034;3.730;2022-08-19T03:45:11;29.38;;;19.35;;
36715;SDS011;22699;51.034;3.730;2022-08-19T03:47:37;26.00;;;19.42;;
36715;SDS011;22699;51.034;3.730;2022-08-19T03:50:03;32.95;;;19.30;;
36715;SDS011;22699;51.034;3.730;2022-08-19T03:52:29;24.05;;;18.55;;
36715;SDS011;22699;51.034;3.730;2022-08-19T03:54:55;27.17;;;19.90;;
36715;SDS011;22699;51.034;3.730;2022-08-19T03:57:21;26.75;;;19.08;;
36715;SDS011;22699;51.034;3.730;2022-08-19T03:59:46;23.80;;;17.45;;
36715;SDS011;22699;51.034;3.730;2022-08-19T04:02:13;26.70;;;17.95;;
36715;SDS011;22699;51.034;3.730;2022-08-19T04:04:40;26.83;;;17.55;;
36715;SDS011;22699;51.034;3.730;2022-08-19T04:07:08;27.77;;;16.98;;
36715;SDS011;22699;51.034;3.730;2022-08-19T04:09:36;28.40;;;17.73;;
36715;SDS011;22699;51.034;3.730;2022-08-19T04:12:02;23.67;;;17.40;;
36715;SDS011;22699;51.034;3.730;2022-08-19T04:14:30;26.55;;;18.35;;
36715;SDS011;22699;51.034;3.730;2022-08-19T04:16:57;24.70;;;18.05;;
36715;SDS011;22699;51.034;3.730;2022-08-19T04:19:24;21.48;;;17.50;;
36715;SDS011;22699;51.034;3.730;2022-08-19T04:21:52;22.55;;;17.38;;
36715;SDS011;22699;51.034;3.730;2022-08-19T04:24:19;30.30;;;17.90;;
36715;SDS011;22699;51.034;3.730;2022-08-19T04:26:46;24.63;;;16.70;;
36715;SDS011;22699;51.034;3.730;2022-08-19T04:29:17;23.60;;;17.80;;
36715;SDS011;22699;51.034;3.730;2022-08-19T04:31:49;25.55;;;16.83;;
36715;SDS011;22699;51.034;3.730;2022-08-19T04:34:17;29.40;;;18.45;;
36715;SDS011;22699;51.034;3.730;2022-08-19T04:36:47;24.13;;;17.45;;
36715;SDS011;22699;51.034;3.730;2022-08-19T04:39:16;25.13;;;18.33;;
36715;SDS011;22699;51.034;3.730;2022-08-19T04:41:44;21.73;;;17.15;;
36715;SDS011;22699;51.034;3.730;2022-08-19T04:44:29;26.15;;;16.50;;
36715;SDS011;22699;51.034;3.730;2022-08-19T04:46:56;21.73;;;16.48;;
36715;SDS011;22699;51.034;3.730;2022-08-19T04:49:22;21.63;;;15.60;;
36715;SDS011;22699;51.034;3.730;2022-08-19T04:51:49;24.10;;;15.63;;
36715;SDS011;22699;51.034;3.730;2022-08-19T04:56:47;20.67;;;15.77;;
36715;SDS011;22699;51.034;3.730;2022-08-19T04:59:15;20.63;;;14.43;;
36715;SDS011;22699;51.034;3.730;2022-08-19T05:01:42;19.98;;;13.23;;
36715;SDS011;22699;51.034;3.730;2022-08-19T05:04:08;20.90;;;14.82;;
36715;SDS011;22699;51.034;3.730;2022-08-19T05:06:34;22.83;;;13.85;;
36715;SDS011;22699;51.034;3.730;2022-08-19T05:09:02;23.55;;;14.90;;
36715;SDS011;22699;51.034;3.730;2022-08-19T05:11:30;19.92;;;12.55;;
36715;SDS011;22699;51.034;3.730;2022-08-19T05:13:58;17.80;;;13.10;;
36715;SDS011;22699;51.034;3.730;2022-08-19T05:16:26;23.42;;;14.27;;
36715;SDS011;22699;51.034;3.730;2022-08-19T05:18:52;19.80;;;13.07;;
36715;SDS011;22699;51.034;3.730;2022-08-19T05:21:38;22.45;;;14.45;;
36715;SDS011;22699;51.034;3.730;2022-08-19T05:24:25;22.58;;;13.80;;
36715;SDS011;22699;51.034;3.730;2022-08-19T05:26:52;23.27;;;13.10;;
36715;SDS011;22699;51.034;3.730;2022-08-19T05:29:21;22.50;;;13.38;;
36715;SDS011;22699;51.034;3.730;2022-08-19T05:31:48;19.15;;;12.35;;
36715;SDS011;22699;51.034;3.730;2022-08-19T05:34:16;19.33;;;12.68;;
36715;SDS011;22699;51.034;3.730;2022-08-19T05:36:46;21.70;;;12.20;;
36715;SDS011;22699;51.034;3.730;2022-08-19T05:39:14;23.83;;;12.88;;
36715;SDS011;22699;51.034;3.730;2022-08-19T05:41:42;21.17;;;12.23;;
36715;SDS011;22699;51.034;3.730;2022-08-19T05:44:13;20.05;;;12.68;;
36715;SDS011;22699;51.034;3.730;2022-08-19T05:46:42;20.88;;;12.70;;
36715;SDS011;22699;51.034;3.730;2022-08-19T05:49:11;18.13;;;13.70;;
36715;SDS011;22699;51.034;3.730;2022-08-19T05:51:38;18.08;;;12.48;;
36715;SDS011;22699;51.034;3.730;2022-08-19T05:54:05;23.33;;;14.77;;
36715;SDS011;22699;51.034;3.730;2022-08-19T05:56:32;20.08;;;13.50;;
36715;SDS011;22699;51.034;3.730;2022-08-19T05:58:59;22.35;;;13.02;;
36715;SDS011;22699;51.034;3.730;2022-08-19T06:01:26;24.73;;;14.27;;
36715;SDS011;22699;51.034;3.730;2022-08-19T06:03:51;22.80;;;12.88;;
36715;SDS011;22699;51.034;3.730;2022-08-19T06:06:18;22.60;;;12.98;;
36715;SDS011;22699;51.034;3.730;2022-08-19T06:08:45;19.13;;;12.65;;
36715;SDS011;22699;51.034;3.730;2022-08-19T06:13:43;19.42;;;12.63;;
36715;SDS011;22699;51.034;3.730;2022-08-19T06:16:12;15.27;;;11.13;;
36715;SDS011;22699;51.034;3.730;2022-08-19T06:18:44;17.02;;;12.73;;
36715;SDS011;22699;51.034;3.730;2022-08-19T06:21:10;20.23;;;12.55;;
36715;SDS011;22699;51.034;3.730;2022-08-19T06:23:35;20.13;;;12.43;;
36715;SDS011;22699;51.034;3.730;2022-08-19T06:26:01;14.85;;;11.27;;
36715;SDS011;22699;51.034;3.730;2022-08-19T06:28:27;18.00;;;11.23;;
36715;SDS011;22699;51.034;3.730;2022-08-19T06:30:52;20.77;;;11.82;;
36715;SDS011;22699;51.034;3.730;2022-08-19T06:33:18;13.95;;;10.57;;
36715;SDS011;22699;51.034;3.730;2022-08-19T06:35:43;17.20;;;11.30;;
36715;SDS011;22699;51.034;3.730;2022-08-19T06:38:09;15.50;;;10.90;;
36715;SDS011;22699;51.034;3.730;2022-08-19T06:40:35;16.73;;;10.50;;
36715;SDS011;22699;51.034;3.730;2022-08-19T06:43:02;17.15;;;11.13;;
36715;SDS011;22699;51.034;3.730;2022-08-19T06:45:28;14.77;;;10.82;;
36715;SDS011;22699;51.034;3.730;2022-08-19T06:47:53;15.77;;;10.68;;
36715;SDS011;22699;51.034;3.730;2022-08-19T06:50:20;16.10;;;10.15;;
36715;SDS011;22699;51.034;3.730;2022-08-19T06:52:47;15.20;;;10.38;;
36715;SDS011;22699;51.034;3.730;2022-08-19T06:55:13;18.23;;;9.73;;
36715;SDS011;22699;51.034;3.730;2022-08-19T06:57:40;16.23;;;10.48;;
36715;SDS011;22699;51.034;3.730;2022-08-19T07:00:07;13.82;;;9.85;;
36715;SDS011;22699;51.034;3.730;2022-08-19T07:02:40;12.73;;;9.00;;
36715;SDS011;22699;51.034;3.730;2022-08-19T07:05:06;14.40;;;10.10;;
36715;SDS011;22699;51.034;3.730;2022-08-19T07:07:33;14.23;;;10.20;;
36715;SDS011;22699;51.034;3.730;2022-08-19T07:09:59;15.73;;;9.93;;
36715;SDS011;22699;51.034;3.730;2022-08-19T07:12:25;15.32;;;10.15;;
36715;SDS011;22699;51.034;3.730;2022-08-19T07:14:51;12.55;;;9.35;;
36715;SDS011;22699;51.034;3.730;2022-08-19T07:17:17;13.82;;;9.70;;
36715;SDS011;22699;51.034;3.730;2022-08-19T07:19:44;14.20;;;8.68;;
36715;SDS011;22699;51.034;3.730;2022-08-19T07:22:10;16.92;;;10.23;;
36715;SDS011;22699;51.034;3.730;2022-08-19T07:24:36;12.70;;;9.73;;
36715;SDS011;22699;51.034;3.730;2022-08-19T07:27:03;12.32;;;9.98;;
36715;SDS011;22699;51.034;3.730;2022-08-19T07:29:31;11.25;;;9.73;;
36715;SDS011;22699;51.034;3.730;2022-08-19T07:31:59;15.93;;;10.40;;
36715;SDS011;22699;51.034;3.730;2022-08-19T07:34:25;13.93;;;9.95;;
36715;SDS011;22699;51.034;3.730;2022-08-19T07:36:52;13.15;;;10.32;;
36715;SDS011;22699;51.034;3.730;2022-08-19T07:39:28;15.05;;;9.35;;
36715;SDS011;22699;51.034;3.730;2022-08-19T07:41:56;13.18;;;9.50;;
36715;SDS011;22699;51.034;3.730;2022-08-19T07:44:23;12.30;;;9.20;;
36715;SDS011;22699;51.034;3.730;2022-08-19T07:46:51;14.00;;;9.63;;
36715;SDS011;22699;51.034;3.730;2022-08-19T07:49:18;13.93;;;9.35;;
36715;SDS011;22699;51.034;3.730;2022-08-19T07:51:55;13.45;;;8.70;;
36715;SDS011;22699;51.034;3.730;2022-08-19T07:54:24;14.48;;;9.38;;
36715;SDS011;22699;51.034;3.730;2022-08-19T07:56:52;16.52;;;9.50;;
36715;SDS011;22699;51.034;3.730;2022-08-19T07:59:18;12.60;;;8.73;;
36715;SDS011;22699;51.034;3.730;2022-08-19T08:01:45;16.27;;;9.18;;
36715;SDS011;22699;51.034;3.730;2022-08-19T08:04:12;13.18;;;8.77;;
36715;SDS011;22699;51.034;3.730;2022-08-19T08:06:57;15.85;;;9.00;;
36715;SDS011;22699;51.034;3.730;2022-08-19T08:09:44;12.85;;;9.38;;
36715;SDS011;22699;51.034;3.730;2022-08-19T08:17:11;12.63;;;9.10;;
36715;SDS011;22699;51.034;3.730;2022-08-19T08:19:40;15.90;;;9.43;;
36715;SDS011;22699;51.034;3.730;2022-08-19T08:22:07;11.93;;;9.32;;
36715;SDS011;22699;51.034;3.730;2022-08-19T08:24:54;12.60;;;9.70;;
36715;SDS011;22699;51.034;3.730;2022-08-19T08:27:23;15.75;;;11.20;;
36715;SDS011;22699;51.034;3.730;2022-08-19T08:29:50;12.95;;;10.63;;
36715;SDS011;22699;51.034;3.730;2022-08-19T08:32:15;13.65;;;10.07;;
36715;SDS011;22699;51.034;3.730;2022-08-19T08:34:43;11.80;;;9.85;;
36715;SDS011;22699;51.034;3.730;2022-08-19T08:37:09;12.80;;;9.77;;
36715;SDS011;22699;51.034;3.730;2022-08-19T08:39:34;13.15;;;9.60;;
36715;SDS011;22699;51.034;3.730;2022-08-19T08:45:10;11.68;;;9.75;;
36715;SDS011;22699;51.034;3.730;2022-08-19T08:47:41;13.23;;;9.88;;
36715;SDS011;22699;51.034;3.730;2022-08-19T08:52:54;13.00;;;9.75;;
36715;SDS011;22699;51.034;3.730;2022-08-19T08:55:23;13.25;;;9.82;;
36715;SDS011;22699;51.034;3.730;2022-08-19T08:57:53;13.10;;;9.75;;
36715;SDS011;22699;51.034;3.730;2022-08-19T09:00:25;11.85;;;9.13;;
36715;SDS011;22699;51.034;3.730;2022-08-19T09:02:54;11.98;;;9.43;;
36715;SDS011;22699;51.034;3.730;2022-08-19T09:05:21;9.30;;;8.25;;
36715;SDS011;22699;51.034;3.730;2022-08-19T09:07:51;11.57;;;8.30;;
36715;SDS011;22699;51.034;3.730;2022-08-19T09:15:51;11.13;;;8.25;;
36715;SDS011;22699;51.034;3.730;2022-08-19T09:18:21;11.00;;;7.72;;
36715;SDS011;22699;51.034;3.730;2022-08-19T09:20:47;9.57;;;7.60;;
36715;SDS011;22699;51.034;3.730;2022-08-19T09:23:13;9.18;;;7.53;;
36715;SDS011;22699;51.034;3.730;2022-08-19T09:25:38;8.38;;;6.82;;
36715;SDS011;22699;51.034;3.730;2022-08-19T09:28:05;7.75;;;5.80;;
36715;SDS011;22699;51.034;3.730;2022-08-19T09:30:32;8.00;;;6.10;;
36715;SDS011;22699;51.034;3.730;2022-08-19T09:33:00;8.95;;;5.80;;
36715;SDS011;22699;51.034;3.730;2022-08-19T09:35:26;9.18;;;5.13;;
36715;SDS011;22699;51.034;3.730;2022-08-19T09:37:54;6.97;;;5.18;;
36715;SDS011;22699;51.034;3.730;2022-08-19T09:40:22;5.57;;;4.97;;
36715;SDS011;22699;51.034;3.730;2022-08-19T09:42:48;6.88;;;4.85;;
36715;SDS011;22699;51.034;3.730;2022-08-19T09:45:14;5.75;;;4.03;;
36715;SDS011;22699;51.034;3.730;2022-08-19T09:47:42;6.95;;;3.90;;
36715;SDS011;22699;51.034;3.730;2022-08-19T09:50:09;7.10;;;4.38;;
36715;SDS011;22699;51.034;3.730;2022-08-19T09:52:36;11.40;;;4.65;;
36715;SDS011;22699;51.034;3.730;2022-08-19T09:55:06;6.57;;;4.03;;
36715;SDS011;22699;51.034;3.730;2022-08-19T09:57:33;4.28;;;3.88;;
36715;SDS011;22699;51.034;3.730;2022-08-19T09:59:59;5.03;;;4.00;;
36715;SDS011;22699;51.034;3.730;2022-08-19T10:02:25;5.13;;;4.45;;
36715;SDS011;22699;51.034;3.730;2022-08-19T10:04:51;5.35;;;4.85;;
36715;SDS011;22699;51.034;3.730;2022-08-19T10:07:37;7.78;;;5.13;;
36715;SDS011;22699;51.034;3.730;2022-08-19T10:10:03;5.85;;;4.97;;
36715;SDS011;22699;51.034;3.730;2022-08-19T10:12:31;8.15;;;5.28;;
36715;SDS011;22699;51.034;3.730;2022-08-19T10:14:57;6.65;;;4.97;;
36715;SDS011;22699;51.034;3.730;2022-08-19T10:17:23;7.55;;;5.07;;
36715;SDS011;22699;51.034;3.730;2022-08-19T10:19:50;5.40;;;4.65;;
36715;SDS011;22699;51.034;3.730;2022-08-19T10:22:17;5.28;;;4.22;;
36715;SDS011;22699;51.034;3.730;2022-08-19T10:24:45;6.25;;;4.55;;
36715;SDS011;22699;51.034;3.730;2022-08-19T10:27:12;4.97;;;4.07;;
36715;SDS011;22699;51.034;3.730;2022-08-19T10:29:39;6.32;;;3.55;;
36715;SDS011;22699;51.034;3.730;2022-08-19T10:32:06;5.45;;;4.15;;
36715;SDS011;22699;51.034;3.730;2022-08-19T10:34:34;16.60;;;4.47;;
36715;SDS011;22699;51.034;3.730;2022-08-19T10:37:01;7.40;;;4.13;;
36715;SDS011;22699;51.034;3.730;2022-08-19T10:39:30;4.68;;;4.25;;
36715;SDS011;22699;51.034;3.730;2022-08-19T10:41:57;6.10;;;4.03;;
36715;SDS011;22699;51.034;3.730;2022-08-19T10:44:23;6.65;;;4.28;;
36715;SDS011;22699;51.034;3.730;2022-08-19T10:46:49;4.88;;;4.47;;
36715;SDS011;22699;51.034;3.730;2022-08-19T10:49:17;5.03;;;4.50;;
36715;SDS011;22699;51.034;3.730;2022-08-19T10:51:44;5.80;;;5.30;;
36715;SDS011;22699;51.034;3.730;2022-08-19T10:54:28;6.43;;;5.30;;
36715;SDS011;22699;51.034;3.730;2022-08-19T10:57:13;8.48;;;4.95;;
36715;SDS011;22699;51.034;3.730;2022-08-19T10:59:39;5.03;;;4.47;;
36715;SDS011;22699;51.034;3.730;2022-08-19T11:02:06;5.53;;;4.57;;
36715;SDS011;22699;51.034;3.730;2022-08-19T11:04:35;3.92;;;3.50;;
36715;SDS011;22699;51.034;3.730;2022-08-19T11:07:02;7.15;;;4.25;;
36715;SDS011;22699;51.034;3.730;2022-08-19T11:09:29;3.95;;;3.55;;
36715;SDS011;22699;51.034;3.730;2022-08-19T11:11:55;5.63;;;3.28;;
36715;SDS011;22699;51.034;3.730;2022-08-19T11:14:21;3.80;;;3.25;;
36715;SDS011;22699;51.034;3.730;2022-08-19T11:16:48;5.68;;;3.05;;
36715;SDS011;22699;51.034;3.730;2022-08-19T11:19:15;4.60;;;2.72;;
36715;SDS011;22699;51.034;3.730;2022-08-19T11:21:46;4.20;;;2.27;;
36715;SDS011;22699;51.034;3.730;2022-08-19T11:24:14;4.13;;;2.10;;
36715;SDS011;22699;51.034;3.730;2022-08-19T11:26:43;2.38;;;1.75;;
36715;SDS011;22699;51.034;3.730;2022-08-19T11:29:09;7.18;;;1.98;;
36715;SDS011;22699;51.034;3.730;2022-08-19T11:31:38;4.18;;;1.67;;
36715;SDS011;22699;51.034;3.730;2022-08-19T11:34:06;3.55;;;2.25;;
36715;SDS011;22699;51.034;3.730;2022-08-19T11:36:34;2.45;;;1.58;;
36715;SDS011;22699;51.034;3.730;2022-08-19T11:39:04;7.25;;;1.20;;
36715;SDS011;22699;51.034;3.730;2022-08-19T11:41:31;2.83;;;1.10;;
36715;SDS011;22699;51.034;3.730;2022-08-19T11:43:56;10.43;;;1.52;;
36715;SDS011;22699;51.034;3.730;2022-08-19T11:46:23;4.75;;;1.15;;
36715;SDS011;22699;51.034;3.730;2022-08-19T11:48:50;1.00;;;0.80;;
36715;SDS011;22699;51.034;3.730;2022-08-19T11:51:18;3.25;;;1.05;;
36715;SDS011;22699;51.034;3.730;2022-08-19T11:53:46;2.53;;;0.90;;
36715;SDS011;22699;51.034;3.730;2022-08-19T11:56:13;2.70;;;0.85;;
36715;SDS011;22699;51.034;3.730;2022-08-19T11:58:39;3.38;;;0.80;;
36715;SDS011;22699;51.034;3.730;2022-08-19T12:01:10;1.85;;;0.70;;
36715;SDS011;22699;51.034;3.730;2022-08-19T12:03:41;3.33;;;0.80;;
36715;SDS011;22699;51.034;3.730;2022-08-19T12:06:09;1.30;;;0.70;;
36715;SDS011;22699;51.034;3.730;2022-08-19T12:08:39;2.58;;;0.75;;
36715;SDS011;22699;51.034;3.730;2022-08-19T12:11:08;8.35;;;1.25;;
36715;SDS011;22699;51.034;3.730;2022-08-19T12:13:37;2.65;;;0.88;;
36715;SDS011;22699;51.034;3.730;2022-08-19T12:16:10;4.20;;;1.75;;
36715;SDS011;22699;51.034;3.730;2022-08-19T12:18:38;2.83;;;1.70;;
36715;SDS011;22699;51.034;3.730;2022-08-19T12:21:08;4.35;;;1.90;;
36715;SDS011;22699;51.034;3.730;2022-08-19T12:23:36;4.80;;;2.28;;
36715;SDS011;22699;51.034;3.730;2022-08-19T12:26:02;2.50;;;1.70;;
36715;SDS011;22699;51.034;3.730;2022-08-19T12:28:28;3.25;;;1.90;;
36715;SDS011;22699;51.034;3.730;2022-08-19T12:30:55;4.50;;;1.73;;
36715;SDS011;22699;51.034;3.730;2022-08-19T12:33:21;1.85;;;1.52;;
36715;SDS011;22699;51.034;3.730;2022-08-19T12:35:51;2.90;;;1.85;;
36715;SDS011;22699;51.034;3.730;2022-08-19T12:38:17;7.03;;;1.63;;
36715;SDS011;22699;51.034;3.730;2022-08-19T12:40:48;5.50;;;2.60;;
36715;SDS011;22699;51.034;3.730;2022-08-19T12:43:22;4.65;;;1.83;;
36715;SDS011;22699;51.034;3.730;2022-08-19T12:45:48;3.80;;;1.75;;
36715;SDS011;22699;51.034;3.730;2022-08-19T12:50:43;7.28;;;2.40;;
36715;SDS011;22699;51.034;3.730;2022-08-19T12:55:46;4.00;;;1.70;;
36715;SDS011;22699;51.034;3.730;2022-08-19T12:58:13;2.03;;;1.48;;
36715;SDS011;22699;51.034;3.730;2022-08-19T13:00:39;3.17;;;1.50;;
36715;SDS011;22699;51.034;3.730;2022-08-19T13:03:06;3.38;;;1.60;;
36715;SDS011;22699;51.034;3.730;2022-08-19T13:05:33;5.97;;;1.85;;
36715;SDS011;22699;51.034;3.730;2022-08-19T13:10:30;7.03;;;1.40;;
36715;SDS011;22699;51.034;3.730;2022-08-19T13:13:06;3.25;;;1.23;;
36715;SDS011;22699;51.034;3.730;2022-08-19T13:15:35;5.93;;;1.75;;
36715;SDS011;22699;51.034;3.730;2022-08-19T13:18:06;4.10;;;1.60;;
36715;SDS011;22699;51.034;3.730;2022-08-19T13:23:03;4.32;;;1.60;;
36715;SDS011;22699;51.034;3.730;2022-08-19T13:25:35;3.58;;;1.52;;
36715;SDS011;22699;51.034;3.730;2022-08-19T13:28:03;6.07;;;1.73;;
36715;SDS011;22699;51.034;3.730;2022-08-19T13:30:29;3.65;;;1.45;;
36715;SDS011;22699;51.034;3.730;2022-08-19T13:33:13;10.05;;;1.65;;
36715;SDS011;22699;51.034;3.730;2022-08-19T13:35:44;3.53;;;1.80;;
36715;SDS011;22699;51.034;3.730;2022-08-19T13:38:14;2.67;;;1.20;;
36715;SDS011;22699;51.034;3.730;2022-08-19T13:40:42;3.13;;;1.30;;
36715;SDS011;22699;51.034;3.730;2022-08-19T13:43:10;2.28;;;1.00;;
36715;SDS011;22699;51.034;3.730;2022-08-19T13:45:36;3.88;;;0.98;;
36715;SDS011;22699;51.034;3.730;2022-08-19T13:48:08;3.08;;;0.95;;
36715;SDS011;22699;51.034;3.730;2022-08-19T13:50:42;2.38;;;0.70;;
36715;SDS011;22699;51.034;3.730;2022-08-19T13:53:12;1.38;;;0.70;;
36715;SDS011;22699;51.034;3.730;2022-08-19T13:58:10;3.40;;;0.70;;
36715;SDS011;22699;51.034;3.730;2022-08-19T14:00:40;2.67;;;0.77;;
36715;SDS011;22699;51.034;3.730;2022-08-19T14:03:09;2.38;;;0.73;;
36715;SDS011;22699;51.034;3.730;2022-08-19T14:05:35;3.65;;;0.73;;
36715;SDS011;22699;51.034;3.730;2022-08-19T14:08:04;4.70;;;1.00;;
36715;SDS011;22699;51.034;3.730;2022-08-19T14:10:30;4.18;;;1.60;;
36715;SDS011;22699;51.034;3.730;2022-08-19T14:13:01;4.10;;;1.63;;
36715;SDS011;22699;51.034;3.730;2022-08-19T14:15:29;4.65;;;1.88;;
36715;SDS011;22699;51.034;3.730;2022-08-19T14:17:57;4.05;;;1.70;;
36715;SDS011;22699;51.034;3.730;2022-08-19T14:20:22;4.00;;;1.75;;
36715;SDS011;22699;51.034;3.730;2022-08-19T14:25:22;5.45;;;2.35;;
36715;SDS011;22699;51.034;3.730;2022-08-19T14:27:50;8.48;;;3.00;;
36715;SDS011;22699;51.034;3.730;2022-08-19T14:30:21;6.90;;;2.50;;
36715;SDS011;22699;51.034;3.730;2022-08-19T14:32:55;4.80;;;2.35;;
36715;SDS011;22699;51.034;3.730;2022-08-19T14:35:24;4.65;;;2.50;;
36715;SDS011;22699;51.034;3.730;2022-08-19T14:40:23;4.60;;;2.53;;
36715;SDS011;22699;51.034;3.730;2022-08-19T14:42:56;3.83;;;2.65;;
36715;SDS011;22699;51.034;3.730;2022-08-19T14:45:31;6.38;;;3.80;;
36715;SDS011;22699;51.034;3.730;2022-08-19T14:47:58;4.57;;;2.97;;
36715;SDS011;22699;51.034;3.730;2022-08-19T14:50:28;6.55;;;4.13;;
36715;SDS011;22699;51.034;3.730;2022-08-19T14:52:58;6.63;;;3.65;;
36715;SDS011;22699;51.034;3.730;2022-08-19T14:55:31;7.57;;;4.47;;
36715;SDS011;22699;51.034;3.730;2022-08-19T14:57:58;5.82;;;3.10;;
36715;SDS011;22699;51.034;3.730;2022-08-19T15:00:24;6.43;;;4.20;;
36715;SDS011;22699;51.034;3.730;2022-08-19T15:02:56;9.15;;;4.30;;
36715;SDS011;22699;51.034;3.730;2022-08-19T15:05:27;5.65;;;3.15;;
36715;SDS011;22699;51.034;3.730;2022-08-19T15:07:52;10.35;;;5.55;;
36715;SDS011;22699;51.034;3.730;2022-08-19T15:10:20;5.60;;;3.42;;
36715;SDS011;22699;51.034;3.730;2022-08-19T15:12:48;7.68;;;4.78;;
36715;SDS011;22699;51.034;3.730;2022-08-19T15:15:17;7.10;;;4.25;;
36715;SDS011;22699;51.034;3.730;2022-08-19T15:17:45;7.55;;;4.22;;
36715;SDS011;22699;51.034;3.730;2022-08-19T15:20:12;10.27;;;4.55;;
36715;SDS011;22699;51.034;3.730;2022-08-19T15:22:43;13.38;;;4.63;;